West Okoboji, Iowa
Current Conditions -  °F | °C
As of 2:53 PM on Friday 24 Oct 2014 (Local Time) from KSPW Reporting Station
Clear Clear  
Wind Chill: 72°   Ceiling: Unl
Heat Index: 72°   Visibility: 10mi
Dew Point: 52°   Wind: 10mph
Humidity: 49%   Direction: 280°W
Pressure: 29.87"   Gusts: NA
Location:  43.2989°N, 95.2104°W
Report Text: KSPW 241953Z AUTO 28009KT 10SM CLR 22/11 A2987 RMK AO2 SLP113 T02220111 TSNO
Loading
Personal Weather Stations






























Interactive Weather Map
Tropical Storm Tracking
New forecast layout! Learn more

10-Day Weather Forecast

Advertisements
Track Severe Weather on mobile